Time;durP1;ratioP1;P1;durP2;ratioP2;P2;SDS_P1;SDS_P2;PMS_P1;PMS_P2;Temp;Humidity;BMP_temperature;BMP_pressure;BME280_temperature;BME280_humidity;BME280_pressure;Samples;Min_cycle;Max_cycle;Signal;HPM_P1;HPM_P2
2021/03/12 00:01:49;;;;;;;2.47;0.43;;;5.40;99.90;;;;;;4977297;28;20091;-62
2021/03/12 00:04:15;;;;;;;3.60;0.60;;;5.40;99.90;;;;;;4994407;28;20073;-62
2021/03/12 00:06:40;;;;;;;2.40;0.50;;;5.40;99.90;;;;;;4995446;28;20034;-62
2021/03/12 00:09:06;;;;;;;4.88;1.45;;;5.40;99.90;;;;;;4994848;28;20054;-66
2021/03/12 00:11:32;;;;;;;3.67;0.52;;;5.50;99.90;;;;;;4994917;28;20510;-62
2021/03/12 00:13:57;;;;;;;4.03;0.40;;;5.50;99.90;;;;;;4994785;28;20407;-62
2021/03/12 00:16:23;;;;;;;4.43;0.70;;;5.50;99.90;;;;;;4994113;28;20628;-62
2021/03/12 00:18:48;;;;;;;3.80;0.55;;;5.60;99.90;;;;;;4994877;28;20042;-62
2021/03/12 00:21:15;;;;;;;3.17;0.70;;;5.60;99.90;;;;;;4994730;28;20026;-62
2021/03/12 00:23:41;;;;;;;5.15;0.60;;;5.60;99.90;;;;;;4994802;28;20026;-65
2021/03/12 00:26:08;;;;;;;2.95;0.68;;;5.70;99.90;;;;;;4989610;28;20034;-66
2021/03/12 00:28:35;;;;;;;1.38;0.50;;;5.80;99.90;;;;;;4994717;28;20027;-62
2021/03/12 00:31:02;;;;;;;5.55;0.90;;;5.80;99.90;;;;;;4995410;28;20030;-61
2021/03/12 00:33:28;;;;;;;3.30;0.60;;;5.90;99.90;;;;;;4993910;28;20872;-62
2021/03/12 00:35:54;;;;;;;3.15;0.52;;;5.90;99.90;;;;;;4994663;28;20105;-62
2021/03/12 00:38:20;;;;;;;5.10;0.60;;;5.90;99.90;;;;;;5000966;28;20109;-62
2021/03/12 00:40:58;;;;;;;7.55;0.65;;;5.90;99.90;;;;;;4994172;28;20125;-62
2021/03/12 00:43:24;;;;;;;4.63;0.70;;;5.90;99.90;;;;;;4989963;28;20779;-62
2021/03/12 00:46:10;;;;;;;3.17;0.65;;;5.90;99.60;;;;;;4980458;28;20110;-62
2021/03/12 00:48:36;;;;;;;1.10;0.60;;;5.90;98.90;;;;;;4975265;28;20665;-61
2021/03/12 00:51:02;;;;;;;4.68;0.60;;;6.10;95.70;;;;;;4975439;28;20038;-62
2021/03/12 00:53:28;;;;;;;4.88;0.63;;;6.20;94.80;;;;;;4981956;28;20039;-62
2021/03/12 00:55:54;;;;;;;2.88;0.77;;;6.20;95.60;;;;;;4979308;28;20392;-62
2021/03/12 00:58:21;;;;;;;3.95;0.88;;;6.20;95.90;;;;;;4985978;28;20030;-62
2021/03/12 01:00:47;;;;;;;4.32;0.73;;;6.20;94.50;;;;;;4977654;28;20027;-62
2021/03/12 01:03:13;;;;;;;1.90;0.40;;;6.30;93.30;;;;;;4985938;28;20026;-64
2021/03/12 01:05:39;;;;;;;6.35;0.60;;;6.40;92.10;;;;;;4993979;28;20041;-62
2021/03/12 01:08:06;;;;;;;4.72;0.90;;;6.50;91.60;;;;;;4985417;28;20101;-66
2021/03/12 01:10:33;;;;;;;7.35;1.08;;;6.60;90.60;;;;;;4985053;28;20033;-62
2021/03/12 01:12:59;;;;;;;4.38;1.05;;;6.60;90.70;;;;;;4977984;28;20522;-62
2021/03/12 01:15:26;;;;;;;2.58;0.70;;;6.60;90.30;;;;;;4990491;28;20035;-62
2021/03/12 01:17:52;;;;;;;4.45;0.63;;;6.70;89.50;;;;;;4993883;28;20030;-62
2021/03/12 01:20:30;;;;;;;5.03;0.82;;;6.60;90.00;;;;;;4993109;28;20058;-62
2021/03/12 01:22:57;;;;;;;3.45;0.90;;;6.70;88.50;;;;;;4990849;28;20149;-64
2021/03/12 01:25:26;;;;;;;6.68;0.88;;;6.70;88.30;;;;;;4987033;28;20426;-62
2021/03/12 01:27:52;;;;;;;3.03;0.80;;;6.70;87.00;;;;;;4992619;28;20031;-62
2021/03/12 01:30:32;;;;;;;6.45;0.60;;;6.70;86.10;;;;;;4992846;28;20025;-62
2021/03/12 01:32:58;;;;;;;2.78;0.63;;;6.70;87.10;;;;;;4992561;28;20042;-62
2021/03/12 01:35:23;;;;;;;1.70;0.60;;;6.60;86.90;;;;;;4975246;28;20046;-62
2021/03/12 01:37:49;;;;;;;3.83;0.65;;;6.80;80.50;;;;;;4975639;28;20034;-62
2021/03/12 01:40:17;;;;;;;4.55;0.70;;;6.90;79.20;;;;;;4978548;28;20051;-62
2021/03/12 01:42:43;;;;;;;4.30;0.65;;;6.90;79.30;;;;;;4974020;28;20535;-63
2021/03/12 01:45:16;;;;;;;7.13;0.77;;;6.90;79.00;;;;;;4975652;28;20383;-66
2021/03/12 01:47:43;;;;;;;3.10;0.63;;;6.80;79.80;;;;;;4979585;28;20037;-62
2021/03/12 01:50:09;;;;;;;4.22;0.68;;;6.90;79.60;;;;;;4992534;28;20080;-66
2021/03/12 01:52:35;;;;;;;3.67;0.57;;;6.90;79.30;;;;;;4992948;28;20042;-62
2021/03/12 01:55:01;;;;;;;5.63;0.80;;;6.90;79.90;;;;;;4984586;28;20038;-63
2021/03/12 01:57:27;;;;;;;3.67;0.70;;;6.90;79.70;;;;;;4992235;28;20612;-62
2021/03/12 01:59:53;;;;;;;3.15;0.90;;;6.80;82.30;;;;;;4992833;28;20026;-62
2021/03/12 02:02:19;;;;;;;5.50;0.63;;;6.70;83.00;;;;;;4982418;28;20033;-62
2021/03/12 02:04:45;;;;;;;7.30;0.95;;;6.50;84.50;;;;;;4982322;28;20113;-62
2021/03/12 02:07:11;;;;;;;7.20;0.90;;;6.60;86.70;;;;;;4974264;28;20109;-66
2021/03/12 02:09:36;;;;;;;5.70;0.90;;;6.40;87.20;;;;;;4973647;28;20460;-62
2021/03/12 02:12:19;;;;;;;3.47;0.60;;;6.30;86.70;;;;;;4986465;28;20069;-62
2021/03/12 02:14:59;;;;;;;3.50;0.70;;;6.20;88.30;;;;;;4974827;28;20469;-64
2021/03/12 02:17:32;;;;;;;5.63;0.50;;;6.10;86.70;;;;;;4989542;28;20040;-62
2021/03/12 02:20:24;;;;;;;3.35;0.60;;;6.00;88.30;;;;;;4973949;28;20121;-64
2021/03/12 02:23:09;;;;;;;4.20;0.63;;;5.90;89.30;;;;;;4974977;28;20105;-62
2021/03/12 02:25:37;;;;;;;4.13;0.70;;;6.00;88.70;;;;;;4987470;28;20036;-62
2021/03/12 02:28:03;;;;;;;3.90;0.70;;;5.90;89.30;;;;;;4992264;28;20022;-63
2021/03/12 02:30:29;;;;;;;2.13;0.55;;;5.80;89.00;;;;;;4985676;28;20031;-63
2021/03/12 02:32:55;;;;;;;3.25;0.70;;;5.80;89.60;;;;;;4992613;28;20030;-63
2021/03/12 02:35:23;;;;;;;5.53;1.02;;;5.80;90.30;;;;;;4982786;28;20058;-63
2021/03/12 02:37:51;;;;;;;5.50;1.00;;;5.70;90.50;;;;;;4982266;28;20031;-64
2021/03/12 02:40:19;;;;;;;7.57;0.65;;;5.60;90.80;;;;;;4974512;28;20402;-61
2021/03/12 02:42:46;;;;;;;3.40;0.75;;;5.60;90.60;;;;;;4963356;28;20460;-63
2021/03/12 02:45:13;;;;;;;3.75;0.75;;;5.50;90.80;;;;;;4984776;28;20030;-67
2021/03/12 02:47:40;;;;;;;3.63;0.57;;;5.50;90.40;;;;;;4976791;28;20116;-63
2021/03/12 02:50:07;;;;;;;6.47;0.70;;;5.50;90.70;;;;;;4992083;28;20027;-63
2021/03/12 02:52:33;;;;;;;5.88;0.85;;;5.40;89.70;;;;;;4972875;28;20035;-63
2021/03/12 02:54:59;;;;;;;6.78;0.98;;;5.40;90.70;;;;;;4981530;28;20382;-62
2021/03/12 02:57:25;;;;;;;2.70;0.65;;;5.30;90.80;;;;;;4971903;28;20126;-63
2021/03/12 02:59:52;;;;;;;4.18;0.60;;;5.30;89.10;;;;;;4973888;28;20054;-62
2021/03/12 03:02:21;;;;;;;2.50;0.60;;;5.30;89.40;;;;;;4972057;28;20058;-62
2021/03/12 03:04:48;;;;;;;3.40;0.70;;;5.40;89.40;;;;;;4978285;28;20096;-62
2021/03/12 03:07:15;;;;;;;5.00;0.70;;;5.30;89.60;;;;;;4972618;28;20428;-66
2021/03/12 03:09:43;;;;;;;6.63;0.90;;;5.30;88.20;;;;;;4987980;28;20470;-61
2021/03/12 03:12:13;;;;;;;3.53;0.82;;;5.30;87.40;;;;;;4973088;28;20027;-61
2021/03/12 03:14:39;;;;;;;;;;;5.40;87.30;;;;;;4978835;28;20125;-61
2021/03/12 03:17:08;;;;;;;3.90;1.20;;;5.30;88.10;;;;;;4985182;28;20426;-62
2021/03/12 03:19:36;;;;;;;2.42;0.45;;;5.20;89.40;;;;;;4972143;28;20162;-64
2021/03/12 03:22:03;;;;;;;2.75;0.52;;;5.20;90.30;;;;;;4964520;28;20058;-62
2021/03/12 03:24:30;;;;;;;6.65;0.88;;;5.20;90.80;;;;;;4985475;28;20031;-62
2021/03/12 03:26:56;;;;;;;6.22;0.70;;;5.20;90.30;;;;;;4974807;28;20468;-62
2021/03/12 03:29:22;;;;;;;6.28;0.80;;;5.20;90.30;;;;;;4987213;28;20084;-62
2021/03/12 03:31:49;;;;;;;4.70;0.73;;;5.20;90.10;;;;;;4978510;28;20031;-62
2021/03/12 03:34:15;;;;;;;7.10;0.70;;;5.30;90.10;;;;;;4979899;28;20046;-65
2021/03/12 03:36:41;;;;;;;5.75;0.65;;;5.20;90.30;;;;;;4990876;28;20026;-61
2021/03/12 03:39:08;;;;;;;4.70;0.77;;;5.20;90.30;;;;;;4982282;28;20031;-61
2021/03/12 03:41:43;;;;;;;2.53;0.47;;;5.30;87.60;;;;;;4982837;28;20563;-62
2021/03/12 03:44:09;;;;;;;5.82;0.70;;;5.40;83.50;;;;;;4985049;28;20067;-62
2021/03/12 03:46:41;;;;;;;2.95;0.68;;;5.50;82.70;;;;;;4974737;28;20035;-64
2021/03/12 03:49:09;;;;;;;3.10;0.40;;;5.50;82.10;;;;;;4984986;28;20070;-62
2021/03/12 03:51:39;;;;;;;4.22;0.60;;;5.70;80.60;;;;;;4973166;28;20034;-62
2021/03/12 03:54:06;;;;;;;3.88;0.60;;;5.60;80.40;;;;;;4988009;28;20480;-62
2021/03/12 03:56:35;;;;;;;2.67;0.47;;;5.70;79.20;;;;;;4971799;28;20039;-61
2021/03/12 03:59:02;;;;;;;4.38;0.47;;;5.70;78.40;;;;;;4980358;28;20081;-62
2021/03/12 04:01:28;;;;;;;2.53;0.68;;;5.80;78.20;;;;;;4962768;28;20231;-62
2021/03/12 04:03:54;;;;;;;6.80;0.80;;;5.90;76.30;;;;;;4982130;28;20125;-65
2021/03/12 04:06:22;;;;;;;2.90;0.55;;;5.90;74.20;;;;;;4981818;28;20042;-62
2021/03/12 04:08:48;;;;;;;4.93;1.00;;;5.90;74.10;;;;;;4972099;28;20034;-64
2021/03/12 04:11:15;;;;;;;5.55;0.93;;;5.90;73.70;;;;;;4980543;28;20023;-66
2021/03/12 04:13:41;;;;;;;11.65;0.75;;;5.90;72.80;;;;;;4978515;28;20395;-64
2021/03/12 04:16:08;;;;;;;6.40;0.75;;;5.90;73.20;;;;;;4981385;28;20781;-63
2021/03/12 04:18:35;;;;;;;5.50;0.73;;;5.80;73.20;;;;;;4984738;28;20209;-63
2021/03/12 04:21:01;;;;;;;4.35;0.73;;;5.90;72.30;;;;;;4981064;28;20050;-63
2021/03/12 04:23:27;;;;;;;4.70;0.65;;;5.90;72.70;;;;;;4984959;28;20061;-63
2021/03/12 04:25:53;;;;;;;3.47;0.70;;;5.90;72.70;;;;;;4985695;28;20062;-63
2021/03/12 04:28:19;;;;;;;7.05;1.00;;;5.90;73.00;;;;;;4985339;28;20041;-63
2021/03/12 04:30:45;;;;;;;4.18;0.93;;;5.80;72.60;;;;;;4987772;28;20580;-62
2021/03/12 04:33:12;;;;;;;6.28;0.90;;;5.80;70.90;;;;;;4981825;28;20035;-67
2021/03/12 04:35:37;;;;;;;3.55;0.80;;;5.90;70.80;;;;;;4986158;28;20042;-63
2021/03/12 04:38:03;;;;;;;5.63;0.98;;;6.00;70.70;;;;;;4985482;28;20100;-62
2021/03/12 04:40:30;;;;;;;4.35;0.70;;;5.90;71.40;;;;;;4984807;28;20046;-63
2021/03/12 04:42:56;;;;;;;7.30;1.40;;;5.90;70.60;;;;;;4987129;28;20034;-62
2021/03/12 04:45:23;;;;;;;7.00;0.90;;;5.90;69.50;;;;;;4981441;28;20384;-63
2021/03/12 04:47:49;;;;;;;3.15;0.95;;;5.90;71.00;;;;;;4986045;28;20109;-63
2021/03/12 04:50:15;;;;;;;6.88;1.25;;;5.90;71.30;;;;;;4986054;28;20065;-68
2021/03/12 04:52:41;;;;;;;9.25;0.90;;;5.90;70.30;;;;;;4984967;28;20451;-64
2021/03/12 04:55:11;;;;;;;9.15;1.17;;;5.90;70.50;;;;;;4983942;28;20162;-63
2021/03/12 04:57:37;;;;;;;5.40;0.90;;;6.00;70.70;;;;;;4987278;28;20027;-62
2021/03/12 05:00:06;;;;;;;6.90;0.90;;;5.90;70.20;;;;;;4980676;28;20037;-62
2021/03/12 05:02:33;;;;;;;3.25;0.65;;;5.90;70.40;;;;;;4981879;28;20204;-61
2021/03/12 05:04:59;;;;;;;5.18;1.75;;;5.90;70.40;;;;;;4973119;28;20400;-62
2021/03/12 05:07:25;;;;;;;2.90;0.77;;;5.80;71.20;;;;;;4982487;28;20033;-61
2021/03/12 05:09:51;;;;;;;5.38;0.70;;;5.80;70.80;;;;;;4983795;28;20038;-62
2021/03/12 05:12:16;;;;;;;3.95;0.85;;;5.70;70.30;;;;;;4982824;28;20057;-61
2021/03/12 05:14:42;;;;;;;6.57;0.70;;;5.70;70.50;;;;;;4987839;28;20084;-61
2021/03/12 05:17:08;;;;;;;4.53;0.70;;;5.70;70.60;;;;;;4983941;28;20074;-62
2021/03/12 05:19:34;;;;;;;9.27;1.00;;;5.70;70.10;;;;;;4984775;28;20027;-62
2021/03/12 05:22:00;;;;;;;4.22;0.80;;;5.60;70.80;;;;;;4982576;28;20038;-62
2021/03/12 05:24:26;;;;;;;6.85;0.77;;;5.70;70.90;;;;;;4984928;28;20053;-62
2021/03/12 05:26:52;;;;;;;11.00;1.35;;;5.70;70.60;;;;;;4984822;28;20387;-62
2021/03/12 05:29:18;;;;;;;6.03;1.08;;;5.60;71.00;;;;;;4985592;28;20045;-62
2021/03/12 05:31:44;;;;;;;4.75;0.68;;;5.60;70.90;;;;;;4985557;28;20018;-62
2021/03/12 05:34:10;;;;;;;9.30;0.90;;;5.60;71.80;;;;;;4981711;28;20042;-63
2021/03/12 05:36:38;;;;;;;5.13;1.08;;;5.60;72.10;;;;;;4980758;28;20045;-62
2021/03/12 05:39:07;;;;;;;5.82;0.70;;;5.60;72.20;;;;;;4985769;28;20033;-63
2021/03/12 05:41:36;;;;;;;3.45;0.90;;;5.50;72.50;;;;;;4983805;28;20037;-62
2021/03/12 05:44:04;;;;;;;6.20;1.67;;;5.60;72.50;;;;;;4983343;28;20113;-63
2021/03/12 05:46:31;;;;;;;5.32;0.75;;;5.50;73.20;;;;;;4983987;28;20439;-63
2021/03/12 05:48:58;;;;;;;4.78;0.80;;;5.40;73.90;;;;;;4984488;28;20031;-63
2021/03/12 05:51:25;;;;;;;9.32;1.10;;;5.40;74.00;;;;;;4981490;28;20034;-62
2021/03/12 05:53:51;;;;;;;5.55;0.88;;;5.30;74.20;;;;;;4969714;28;20046;-62
2021/03/12 05:56:17;;;;;;;4.30;0.80;;;5.30;74.50;;;;;;4983610;28;20053;-63
2021/03/12 05:58:43;;;;;;;5.70;0.88;;;5.30;74.30;;;;;;4980498;28;20027;-62
2021/03/12 06:01:09;;;;;;;7.40;1.33;;;5.30;74.90;;;;;;4987138;28;20483;-64
2021/03/12 06:03:34;;;;;;;3.15;0.70;;;5.20;75.70;;;;;;4991646;28;20025;-63
2021/03/12 06:06:00;;;;;;;5.53;1.08;;;5.20;75.40;;;;;;4986586;28;20042;-62
2021/03/12 06:08:26;;;;;;;6.00;0.90;;;5.20;75.30;;;;;;4988275;28;20034;-62
2021/03/12 06:10:51;;;;;;;5.28;0.70;;;5.30;75.70;;;;;;4974117;28;20106;-62
2021/03/12 06:13:17;;;;;;;5.78;0.80;;;5.20;75.40;;;;;;4973110;28;20034;-63
2021/03/12 06:15:43;;;;;;;7.38;0.90;;;5.20;76.20;;;;;;4978923;28;20035;-62
2021/03/12 06:18:13;;;;;;;7.55;1.80;;;5.20;76.40;;;;;;4978567;28;20031;-62
2021/03/12 06:20:39;;;;;;;6.85;0.90;;;5.20;76.30;;;;;;4985687;28;20034;-62
2021/03/12 06:23:05;;;;;;;4.68;0.70;;;5.20;76.50;;;;;;4973319;28;20039;-63
2021/03/12 06:25:31;;;;;;;2.70;0.80;;;5.20;76.80;;;;;;4975788;28;20034;-63
2021/03/12 06:28:18;;;;;;;2.88;0.63;;;5.20;77.10;;;;;;4989788;28;20105;-62
2021/03/12 06:30:44;;;;;;;3.70;0.95;;;5.30;76.70;;;;;;4975338;28;20111;-62
2021/03/12 06:33:24;;;;;;;5.30;0.90;;;5.30;77.00;;;;;;4991777;28;20482;-63
2021/03/12 06:35:50;;;;;;;3.78;0.77;;;5.30;77.10;;;;;;4979493;28;20038;-62
2021/03/12 06:38:16;;;;;;;7.70;0.73;;;5.30;77.30;;;;;;4973371;28;20035;-66
2021/03/12 06:40:42;;;;;;;6.13;0.82;;;5.30;77.50;;;;;;4986917;28;20050;-62
2021/03/12 06:43:18;;;;;;;6.72;1.83;;;5.50;77.50;;;;;;4986390;28;20476;-62
2021/03/12 06:45:52;;;;;;;2.95;0.55;;;5.50;77.90;;;;;;4979731;28;20038;-62
2021/03/12 06:48:27;;;;;;;3.30;1.10;;;5.50;78.20;;;;;;4975285;28;20559;-64
2021/03/12 06:50:58;;;;;;;7.03;1.40;;;5.60;78.20;;;;;;4993172;28;20097;-63
2021/03/12 06:53:28;;;;;;;6.20;0.95;;;5.70;78.00;;;;;;4987445;28;20040;-63
2021/03/12 06:56:00;;;;;;;3.45;0.80;;;5.70;77.90;;;;;;4992250;28;20049;-62
2021/03/12 06:58:26;;;;;;;4.75;1.00;;;5.70;77.90;;;;;;4973230;28;20035;-62
2021/03/12 07:00:52;;;;;;;7.90;1.00;;;5.70;78.10;;;;;;4992003;28;20038;-62
2021/03/12 07:03:23;;;;;;;6.43;0.93;;;5.70;78.30;;;;;;4983025;28;20047;-66
2021/03/12 07:06:18;;;;;;;8.23;1.05;;;5.60;78.20;;;;;;4989109;28;20117;-63
2021/03/12 07:08:47;;;;;;;5.00;0.82;;;5.60;77.90;;;;;;4971107;28;20045;-62
2021/03/12 07:11:31;;;;;;;3.75;0.80;;;5.70;78.60;;;;;;4970143;28;20074;-62
2021/03/12 07:13:58;;;;;;;8.65;1.35;;;5.70;79.10;;;;;;4976836;28;20545;-61
2021/03/12 07:16:25;;;;;;;5.82;0.98;;;5.70;79.80;;;;;;4974946;28;20732;-63
2021/03/12 07:18:53;;;;;;;5.22;0.80;;;5.80;80.10;;;;;;4964138;28;20035;-62
2021/03/12 07:21:22;;;;;;;7.07;1.33;;;5.90;80.50;;;;;;4986908;28;20054;-66
2021/03/12 07:23:56;;;;;;;5.47;0.75;;;5.90;80.90;;;;;;4969393;28;20415;-63
2021/03/12 07:26:23;;;;;;;9.13;0.90;;;6.00;80.80;;;;;;4989938;28;20030;-64
2021/03/12 07:28:56;;;;;;;5.18;1.40;;;6.10;80.40;;;;;;4990957;28;20122;-63
2021/03/12 07:31:31;;;;;;;1.70;0.68;;;6.20;80.10;;;;;;4978640;28;20023;-62
2021/03/12 07:33:59;;;;;;;2.13;0.60;;;6.30;79.80;;;;;;4972356;28;20046;-61
2021/03/12 07:36:27;;;;;;;3.67;0.63;;;6.50;78.70;;;;;;4990837;28;20352;-62
2021/03/12 07:39:01;;;;;;;3.15;0.82;;;6.60;78.10;;;;;;4991395;28;20041;-62
2021/03/12 07:41:26;;;;;;;4.00;0.75;;;6.80;76.50;;;;;;4970860;28;20093;-58
2021/03/12 07:43:53;;;;;;;4.25;0.75;;;6.80;77.30;;;;;;4972348;28;20035;-62
2021/03/12 07:46:20;;;;;;;4.32;0.98;;;6.70;77.00;;;;;;4976558;28;20039;-63
2021/03/12 07:48:46;;;;;;;5.00;0.88;;;6.70;78.20;;;;;;4972391;28;20031;-61
2021/03/12 07:51:15;;;;;;;6.35;1.20;;;6.60;79.10;;;;;;4971442;28;20121;-63
2021/03/12 07:53:47;;;;;;;5.57;0.50;;;6.50;79.50;;;;;;4979949;28;20034;-61
2021/03/12 07:56:15;;;;;;;4.13;0.63;;;6.50;79.70;;;;;;4973705;28;20030;-61
2021/03/12 07:58:53;;;;;;;6.13;0.93;;;6.50;80.10;;;;;;4975515;28;20102;-61
2021/03/12 08:01:19;;;;;;;5.43;0.82;;;6.50;80.10;;;;;;4978261;28;20484;-64
2021/03/12 08:03:46;;;;;;;5.32;0.70;;;6.40;82.40;;;;;;4975152;28;20050;-61
2021/03/12 08:06:18;;;;;;;4.40;0.98;;;6.20;85.30;;;;;;4975996;28;20039;-62
2021/03/12 08:08:45;;;;;;;1.92;0.52;;;5.90;88.30;;;;;;4975177;28;20416;-61
2021/03/12 08:11:27;;;;;;;2.88;0.68;;;5.70;90.00;;;;;;4975188;28;20027;-62
2021/03/12 08:13:52;;;;;;;5.18;0.73;;;5.50;90.00;;;;;;4975992;28;20117;-63
2021/03/12 08:16:20;;;;;;;6.47;0.85;;;5.40;91.90;;;;;;4975624;28;20121;-62
2021/03/12 08:18:46;;;;;;;7.45;0.98;;;5.40;90.20;;;;;;4954740;28;20038;-61
2021/03/12 08:21:31;;;;;;;4.60;0.73;;;5.50;94.20;;;;;;4970351;28;20033;-60
2021/03/12 08:24:01;;;;;;;3.92;0.52;;;5.80;93.20;;;;;;4971402;28;20035;-61
2021/03/12 08:26:54;;;;;;;5.47;1.00;;;6.10;93.60;;;;;;4973765;28;20109;-63
2021/03/12 08:29:38;;;;;;;3.70;0.80;;;6.40;88.20;;;;;;4973923;28;20086;-63
2021/03/12 08:32:35;;;;;;;2.97;0.80;;;6.60;88.70;;;;;;4941237;28;20198;-62
2021/03/12 08:35:03;;;;;;;5.25;1.00;;;7.10;85.90;;;;;;4971304;28;20030;-73
2021/03/12 08:37:29;;;;;;;7.70;1.40;;;7.40;83.20;;;;;;4970252;28;20122;-63
2021/03/12 08:40:14;;;;;;;5.57;0.77;;;7.70;82.00;;;;;;4974355;28;20077;-66
2021/03/12 08:43:08;;;;;;;6.45;1.15;;;8.00;75.50;;;;;;4977254;28;20634;-63
2021/03/12 08:45:35;;;;;;;6.72;1.13;;;8.20;72.40;;;;;;4983573;28;20479;-67
2021/03/12 08:48:07;;;;;;;5.68;0.70;;;8.40;70.60;;;;;;4975203;28;20081;-64
2021/03/12 08:50:35;;;;;;;3.65;0.60;;;8.40;70.20;;;;;;4974811;28;20514;-66
2021/03/12 08:53:01;;;;;;;4.25;0.70;;;8.40;70.80;;;;;;4990979;28;20085;-63
2021/03/12 08:55:28;;;;;;;4.13;0.40;;;8.30;69.70;;;;;;4985538;28;20395;-64
2021/03/12 08:58:15;;;;;;;7.28;1.13;;;8.20;68.50;;;;;;4969346;28;20019;-63
2021/03/12 09:00:43;;;;;;;4.97;1.02;;;8.00;69.30;;;;;;4974580;28;20030;-63
2021/03/12 09:03:22;;;;;;;3.25;0.60;;;8.00;70.60;;;;;;4991044;28;20114;-65
2021/03/12 09:05:51;;;;;;;6.57;1.17;;;8.00;69.50;;;;;;4975573;28;20050;-63
2021/03/12 09:08:24;;;;;;;5.25;0.80;;;8.10;68.50;;;;;;4993216;28;20030;-63
2021/03/12 09:10:50;;;;;;;2.13;0.52;;;8.20;67.60;;;;;;4971035;28;20203;-63
2021/03/12 09:13:19;;;;;;;3.40;0.88;;;8.30;65.50;;;;;;4965096;28;20467;-63
2021/03/12 09:15:47;;;;;;;3.10;0.80;;;8.40;65.90;;;;;;4983166;28;20038;-63
2021/03/12 09:18:21;;;;;;;5.53;1.00;;;8.60;66.00;;;;;;4974860;28;20031;-63
2021/03/12 09:20:57;;;;;;;9.57;0.77;;;8.70;63.30;;;;;;4987242;28;20049;-63
2021/03/12 09:23:56;;;;;;;5.72;1.52;;;8.80;63.50;;;;;;4980888;28;20030;-65
2021/03/12 09:26:31;;;;;;;4.47;0.63;;;8.90;61.80;;;;;;4962296;28;20104;-65
2021/03/12 09:29:05;;;;;;;4.05;0.73;;;8.80;62.00;;;;;;4974830;28;20061;-63
2021/03/12 09:31:37;;;;;;;5.38;0.82;;;8.70;61.90;;;;;;4964407;28;20030;-63
2021/03/12 09:34:04;;;;;;;7.20;0.95;;;8.70;63.00;;;;;;4981789;28;20046;-63
2021/03/12 09:36:38;;;;;;;4.45;0.90;;;8.60;63.30;;;;;;4982365;28;20380;-63
2021/03/12 09:39:16;;;;;;;4.00;1.05;;;8.70;63.20;;;;;;4971789;28;20034;-63
2021/03/12 09:41:50;;;;;;;5.60;0.75;;;8.70;63.40;;;;;;4977166;28;20164;-63
2021/03/12 09:44:16;;;;;;;3.03;0.75;;;8.80;62.90;;;;;;4993171;28;20127;-62
2021/03/12 09:46:49;;;;;;;6.38;0.70;;;8.80;62.20;;;;;;4994935;28;20050;-62
2021/03/12 09:49:23;;;;;;;4.35;0.70;;;9.00;61.90;;;;;;4976440;28;20105;-62
2021/03/12 09:51:52;;;;;;;4.13;0.80;;;9.00;61.50;;;;;;4993293;28;20088;-63
2021/03/12 09:54:20;;;;;;;3.58;0.70;;;9.00;62.20;;;;;;4993442;28;20041;-63
2021/03/12 09:56:51;;;;;;;4.55;1.00;;;9.00;61.40;;;;;;4992775;28;20062;-62
2021/03/12 09:59:39;;;;;;;4.00;0.80;;;9.10;61.80;;;;;;4995462;28;20109;-62
2021/03/12 10:02:09;;;;;;;3.40;0.70;;;9.10;61.70;;;;;;5001453;28;20030;-62
2021/03/12 10:04:43;;;;;;;6.10;0.60;;;9.10;61.80;;;;;;4974972;28;20030;-61
2021/03/12 10:07:10;;;;;;;3.13;0.80;;;9.20;61.90;;;;;;4992975;28;20041;-63
2021/03/12 10:09:48;;;;;;;4.57;0.90;;;9.30;61.90;;;;;;4992683;28;20037;-64
2021/03/12 10:12:22;;;;;;;4.55;1.10;;;9.40;62.40;;;;;;4989893;28;20034;-63
2021/03/12 10:14:49;;;;;;;3.72;0.70;;;9.60;61.00;;;;;;4991376;28;20563;-63
2021/03/12 10:17:16;;;;;;;2.53;0.70;;;9.60;61.20;;;;;;4992705;28;20050;-63
2021/03/12 10:20:03;;;;;;;4.50;0.77;;;9.60;61.30;;;;;;4992020;28;20664;-62
2021/03/12 10:22:43;;;;;;;3.92;0.80;;;9.80;61.60;;;;;;4993863;28;20471;-66
2021/03/12 10:25:12;;;;;;;;;;;10.10;61.70;;;;;;4989052;28;20042;-62
2021/03/12 10:28:00;;;;;;;3.22;0.50;;;10.50;60.60;;;;;;4989802;28;19937;-60
2021/03/12 10:30:35;;;;;;;2.95;0.70;;;10.70;58.80;;;;;;4993049;28;20121;-65
2021/03/12 10:33:04;;;;;;;2.63;0.65;;;10.60;59.50;;;;;;4992660;28;20027;-62
2021/03/12 10:35:32;;;;;;;2.13;0.57;;;10.50;60.40;;;;;;4985044;28;20045;-65
2021/03/12 10:38:17;;;;;;;4.38;0.80;;;10.50;61.30;;;;;;4991536;28;20049;-62
2021/03/12 10:40:48;;;;;;;2.75;0.60;;;10.50;61.60;;;;;;4984044;28;20039;-63
2021/03/12 10:43:15;;;;;;;4.53;0.95;;;10.40;63.20;;;;;;4971412;28;20034;-62
2021/03/12 10:46:06;;;;;;;2.25;0.73;;;10.40;64.10;;;;;;4962208;28;20031;-62
2021/03/12 10:48:43;;;;;;;5.38;1.30;;;10.40;63.70;;;;;;4970491;28;20034;-63
2021/03/12 10:51:10;;;;;;;2.03;0.65;;;10.50;63.30;;;;;;4972997;28;20031;-63
2021/03/12 10:53:55;;;;;;;2.15;0.70;;;10.60;63.40;;;;;;4972361;28;20098;-63
2021/03/12 10:56:22;;;;;;;3.00;1.17;;;10.50;63.50;;;;;;4955827;28;20097;-63
2021/03/12 10:58:50;;;;;;;3.95;0.98;;;10.70;63.50;;;;;;4972458;28;20122;-63
2021/03/12 11:01:25;;;;;;;2.60;0.55;;;10.80;63.50;;;;;;4972646;28;20035;-62
2021/03/12 11:03:52;;;;;;;2.55;0.70;;;10.70;64.60;;;;;;4986649;28;20034;-63
2021/03/12 11:06:21;;;;;;;2.45;0.50;;;10.40;66.70;;;;;;4973566;28;20437;-63
2021/03/12 11:08:47;;;;;;;1.92;0.43;;;10.30;69.60;;;;;;4971866;28;20400;-63
2021/03/12 11:11:17;;;;;;;3.70;0.70;;;10.10;67.60;;;;;;4977081;28;20034;-62
2021/03/12 11:13:43;;;;;;;;;;;10.10;67.50;;;;;;4972649;28;20057;-63
2021/03/12 11:16:09;;;;;;;1.85;0.50;;;10.10;67.00;;;;;;4980868;28;20337;-63
2021/03/12 11:18:36;;;;;;;3.15;0.73;;;10.10;62.90;;;;;;4975893;28;20027;-63
2021/03/12 11:21:07;;;;;;;3.47;0.50;;;10.00;62.40;;;;;;4972545;28;20035;-62
2021/03/12 11:23:33;;;;;;;2.83;0.85;;;10.10;61.40;;;;;;4971423;28;20030;-62
2021/03/12 11:26:00;;;;;;;0.90;0.30;;;10.10;58.50;;;;;;4954336;28;20027;-65
2021/03/12 11:28:26;;;;;;;2.50;0.70;;;10.20;59.80;;;;;;4971853;28;20432;-66
2021/03/12 11:30:53;;;;;;;2.38;0.60;;;10.40;57.40;;;;;;4976466;28;20030;-62
2021/03/12 11:33:19;;;;;;;1.98;0.73;;;10.50;56.50;;;;;;4972004;28;20042;-63
2021/03/12 11:35:44;;;;;;;1.65;1.00;;;10.50;56.20;;;;;;4971503;28;20820;-66
2021/03/12 11:38:10;;;;;;;1.92;0.60;;;10.60;56.50;;;;;;4972479;28;20041;-64
2021/03/12 11:40:37;;;;;;;1.75;0.70;;;10.80;55.60;;;;;;4974182;28;20042;-64
2021/03/12 11:43:04;;;;;;;2.90;1.25;;;11.10;55.70;;;;;;4980827;28;20153;-63
2021/03/12 11:45:30;;;;;;;7.00;1.00;;;11.30;54.40;;;;;;4977548;28;20026;-63
2021/03/12 11:47:58;;;;;;;2.25;0.77;;;11.40;52.50;;;;;;4968064;28;20460;-63
2021/03/12 11:50:26;;;;;;;1.80;0.60;;;11.30;51.50;;;;;;4984364;28;20489;-63
2021/03/12 11:52:52;;;;;;;1.73;0.70;;;11.40;51.20;;;;;;4975534;28;20511;-63
2021/03/12 11:55:18;;;;;;;2.65;1.27;;;11.50;51.80;;;;;;4977112;28;20125;-63
2021/03/12 11:57:44;;;;;;;2.38;0.95;;;11.80;51.00;;;;;;4961171;28;20118;-63
2021/03/12 12:00:12;;;;;;;3.05;0.95;;;11.90;49.90;;;;;;4976343;28;20457;-63
2021/03/12 12:02:38;;;;;;;3.17;0.60;;;11.80;50.40;;;;;;4973544;28;20030;-64
2021/03/12 12:05:06;;;;;;;6.22;0.75;;;11.60;51.20;;;;;;4966014;28;20094;-63
2021/03/12 12:07:33;;;;;;;9.07;1.55;;;11.50;51.80;;;;;;4987305;28;20484;-64
2021/03/12 12:09:59;;;;;;;4.20;0.90;;;11.40;51.70;;;;;;4975200;28;20730;-63
2021/03/12 12:12:25;;;;;;;2.67;0.88;;;11.10;50.20;;;;;;4991005;28;20089;-63
2021/03/12 12:14:50;;;;;;;1.17;0.85;;;10.90;50.60;;;;;;4983771;28;20129;-63
2021/03/12 12:17:16;;;;;;;6.40;1.15;;;10.70;49.90;;;;;;4985327;28;20059;-63
2021/03/12 12:19:45;;;;;;;3.05;0.68;;;10.70;49.00;;;;;;4972267;28;20051;-63
2021/03/12 12:22:11;;;;;;;1.58;0.45;;;10.70;48.70;;;;;;4987781;28;20105;-63
2021/03/12 12:24:37;;;;;;;2.72;0.80;;;10.80;48.50;;;;;;4971672;28;20033;-64
2021/03/12 12:27:04;;;;;;;3.92;0.95;;;11.20;47.10;;;;;;4976271;28;20035;-64
2021/03/12 12:29:30;;;;;;;4.35;1.00;;;11.50;46.50;;;;;;4983469;28;20037;-70
2021/03/12 12:31:56;;;;;;;2.15;0.77;;;12.00;45.40;;;;;;4955029;28;20039;-65
2021/03/12 12:34:21;;;;;;;5.38;0.98;;;12.60;44.90;;;;;;4987090;28;20078;-66
2021/03/12 12:36:47;;;;;;;2.88;0.80;;;12.70;44.20;;;;;;4990152;28;20109;-70
2021/03/12 12:39:13;;;;;;;3.55;0.77;;;12.50;44.70;;;;;;4983027;28;20049;-68
2021/03/12 12:41:40;;;;;;;4.05;0.65;;;12.30;45.40;;;;;;4975556;28;20042;-69
2021/03/12 12:44:07;;;;;;;8.88;1.10;;;12.00;45.60;;;;;;4959950;28;20058;-70
2021/03/12 12:46:34;;;;;;;4.60;0.88;;;11.70;45.20;;;;;;4983049;28;20081;-68
2021/03/12 12:49:00;;;;;;;2.75;0.60;;;11.50;45.40;;;;;;4984161;28;20038;-67
2021/03/12 12:51:26;;;;;;;3.47;0.80;;;11.30;46.60;;;;;;4977868;28;20027;-68
2021/03/12 12:53:51;;;;;;;1.77;0.73;;;11.30;47.40;;;;;;4975155;28;20033;-69
2021/03/12 12:56:17;;;;;;;4.88;0.88;;;11.30;48.40;;;;;;4975795;28;20037;-67
2021/03/12 12:58:43;;;;;;;3.72;0.70;;;11.30;49.20;;;;;;4981939;28;20121;-68
2021/03/12 13:01:09;;;;;;;3.38;0.55;;;11.20;47.60;;;;;;4991272;28;20067;-66
2021/03/12 13:03:35;;;;;;;4.05;0.80;;;11.10;48.10;;;;;;4983864;28;20027;-67
2021/03/12 13:06:00;;;;;;;2.70;0.60;;;10.90;49.20;;;;;;4992505;28;20093;-67